sensor_id;sensor_type;location;lat;lon;timestamp;P1;durP1;ratioP1;P2;durP2;ratioP2
13651;SDS011;6899;51.546;6.912;2022-08-19T00:00:08;7.03;;;6.35;;
13651;SDS011;6899;51.546;6.912;2022-08-19T00:02:40;7.03;;;6.32;;
13651;SDS011;6899;51.546;6.912;2022-08-19T00:05:08;6.80;;;6.20;;
13651;SDS011;6899;51.546;6.912;2022-08-19T00:07:39;7.80;;;6.47;;
13651;SDS011;6899;51.546;6.912;2022-08-19T00:10:11;7.35;;;6.65;;
13651;SDS011;6899;51.546;6.912;2022-08-19T00:12:39;7.38;;;6.68;;
13651;SDS011;6899;51.546;6.912;2022-08-19T00:15:08;6.90;;;6.30;;
13651;SDS011;6899;51.546;6.912;2022-08-19T00:17:39;7.95;;;6.47;;
13651;SDS011;6899;51.546;6.912;2022-08-19T00:20:10;6.53;;;6.03;;
13651;SDS011;6899;51.546;6.912;2022-08-19T00:22:42;7.32;;;6.55;;
13651;SDS011;6899;51.546;6.912;2022-08-19T00:25:11;7.07;;;6.32;;
13651;SDS011;6899;51.546;6.912;2022-08-19T00:27:38;7.82;;;6.65;;
13651;SDS011;6899;51.546;6.912;2022-08-19T00:30:06;8.43;;;7.55;;
13651;SDS011;6899;51.546;6.912;2022-08-19T00:32:34;6.88;;;6.28;;
13651;SDS011;6899;51.546;6.912;2022-08-19T00:35:01;7.05;;;6.18;;
13651;SDS011;6899;51.546;6.912;2022-08-19T00:37:28;7.22;;;6.63;;
13651;SDS011;6899;51.546;6.912;2022-08-19T00:39:55;7.03;;;6.32;;
13651;SDS011;6899;51.546;6.912;2022-08-19T00:42:24;7.20;;;6.45;;
13651;SDS011;6899;51.546;6.912;2022-08-19T00:44:53;7.40;;;6.70;;
13651;SDS011;6899;51.546;6.912;2022-08-19T00:47:20;7.75;;;7.00;;
13651;SDS011;6899;51.546;6.912;2022-08-19T00:49:47;7.22;;;6.57;;
13651;SDS011;6899;51.546;6.912;2022-08-19T00:52:17;6.95;;;6.35;;
13651;SDS011;6899;51.546;6.912;2022-08-19T00:54:49;7.05;;;6.45;;
13651;SDS011;6899;51.546;6.912;2022-08-19T00:57:18;7.90;;;7.10;;
13651;SDS011;6899;51.546;6.912;2022-08-19T00:59:52;7.40;;;6.80;;
13651;SDS011;6899;51.546;6.912;2022-08-19T01:02:21;8.15;;;7.30;;
13651;SDS011;6899;51.546;6.912;2022-08-19T01:04:48;6.63;;;6.10;;
13651;SDS011;6899;51.546;6.912;2022-08-19T01:07:15;8.13;;;7.38;;
13651;SDS011;6899;51.546;6.912;2022-08-19T01:09:42;7.55;;;6.65;;
13651;SDS011;6899;51.546;6.912;2022-08-19T01:12:10;8.95;;;8.05;;
13651;SDS011;6899;51.546;6.912;2022-08-19T01:14:39;7.80;;;7.07;;
13651;SDS011;6899;51.546;6.912;2022-08-19T01:17:09;10.07;;;7.50;;
13651;SDS011;6899;51.546;6.912;2022-08-19T01:19:46;7.50;;;6.80;;
13651;SDS011;6899;51.546;6.912;2022-08-19T01:22:15;8.60;;;7.57;;
13651;SDS011;6899;51.546;6.912;2022-08-19T01:24:47;8.90;;;8.10;;
13651;SDS011;6899;51.546;6.912;2022-08-19T01:27:14;8.07;;;7.32;;
13651;SDS011;6899;51.546;6.912;2022-08-19T01:29:42;8.55;;;7.75;;
13651;SDS011;6899;51.546;6.912;2022-08-19T01:32:11;8.05;;;7.35;;
13651;SDS011;6899;51.546;6.912;2022-08-19T01:34:39;9.20;;;7.80;;
13651;SDS011;6899;51.546;6.912;2022-08-19T01:37:07;8.10;;;7.40;;
13651;SDS011;6899;51.546;6.912;2022-08-19T01:39:36;8.15;;;7.45;;
13651;SDS011;6899;51.546;6.912;2022-08-19T01:42:06;9.13;;;8.27;;
13651;SDS011;6899;51.546;6.912;2022-08-19T01:44:36;9.00;;;8.10;;
13651;SDS011;6899;51.546;6.912;2022-08-19T01:47:06;9.15;;;8.25;;
13651;SDS011;6899;51.546;6.912;2022-08-19T01:49:34;8.10;;;7.30;;
13651;SDS011;6899;51.546;6.912;2022-08-19T01:52:02;9.00;;;8.10;;
13651;SDS011;6899;51.546;6.912;2022-08-19T01:54:30;8.35;;;7.55;;
13651;SDS011;6899;51.546;6.912;2022-08-19T01:56:58;9.30;;;8.27;;
13651;SDS011;6899;51.546;6.912;2022-08-19T01:59:32;8.63;;;7.88;;
13651;SDS011;6899;51.546;6.912;2022-08-19T02:02:01;10.18;;;9.18;;
13651;SDS011;6899;51.546;6.912;2022-08-19T02:04:31;9.32;;;8.52;;
13651;SDS011;6899;51.546;6.912;2022-08-19T02:06:57;10.20;;;9.20;;
13651;SDS011;6899;51.546;6.912;2022-08-19T02:09:24;13.70;;;12.30;;
13651;SDS011;6899;51.546;6.912;2022-08-19T02:11:51;13.68;;;11.20;;
13651;SDS011;6899;51.546;6.912;2022-08-19T02:14:21;13.02;;;10.80;;
13651;SDS011;6899;51.546;6.912;2022-08-19T02:16:49;9.80;;;8.90;;
13651;SDS011;6899;51.546;6.912;2022-08-19T02:19:16;12.48;;;8.95;;
13651;SDS011;6899;51.546;6.912;2022-08-19T02:21:43;9.50;;;8.50;;
13651;SDS011;6899;51.546;6.912;2022-08-19T02:24:10;9.18;;;7.90;;
13651;SDS011;6899;51.546;6.912;2022-08-19T02:26:37;9.65;;;8.50;;
13651;SDS011;6899;51.546;6.912;2022-08-19T02:29:04;9.98;;;9.00;;
13651;SDS011;6899;51.546;6.912;2022-08-19T02:31:31;9.93;;;8.93;;
13651;SDS011;6899;51.546;6.912;2022-08-19T02:33:59;9.95;;;9.07;;
13651;SDS011;6899;51.546;6.912;2022-08-19T02:36:26;10.65;;;8.90;;
13651;SDS011;6899;51.546;6.912;2022-08-19T02:38:53;10.18;;;9.23;;
13651;SDS011;6899;51.546;6.912;2022-08-19T02:41:23;11.30;;;10.25;;
13651;SDS011;6899;51.546;6.912;2022-08-19T02:43:54;12.15;;;10.82;;
13651;SDS011;6899;51.546;6.912;2022-08-19T02:46:25;9.90;;;8.75;;
13651;SDS011;6899;51.546;6.912;2022-08-19T02:48:54;11.52;;;9.63;;
13651;SDS011;6899;51.546;6.912;2022-08-19T02:51:25;10.27;;;9.27;;
13651;SDS011;6899;51.546;6.912;2022-08-19T02:53:54;11.93;;;10.02;;
13651;SDS011;6899;51.546;6.912;2022-08-19T02:56:21;9.73;;;8.82;;
13651;SDS011;6899;51.546;6.912;2022-08-19T02:58:49;10.82;;;9.73;;
13651;SDS011;6899;51.546;6.912;2022-08-19T03:01:20;9.43;;;8.40;;
13651;SDS011;6899;51.546;6.912;2022-08-19T03:03:49;11.77;;;10.30;;
13651;SDS011;6899;51.546;6.912;2022-08-19T03:06:16;9.45;;;8.48;;
13651;SDS011;6899;51.546;6.912;2022-08-19T03:08:45;10.38;;;9.38;;
13651;SDS011;6899;51.546;6.912;2022-08-19T03:11:16;9.38;;;8.48;;
13651;SDS011;6899;51.546;6.912;2022-08-19T03:13:44;10.32;;;9.27;;
13651;SDS011;6899;51.546;6.912;2022-08-19T03:16:11;9.82;;;8.82;;
13651;SDS011;6899;51.546;6.912;2022-08-19T03:18:39;9.85;;;8.95;;
13651;SDS011;6899;51.546;6.912;2022-08-19T03:21:06;10.20;;;9.20;;
13651;SDS011;6899;51.546;6.912;2022-08-19T03:23:34;9.48;;;8.68;;
13651;SDS011;6899;51.546;6.912;2022-08-19T03:26:04;11.23;;;10.13;;
13651;SDS011;6899;51.546;6.912;2022-08-19T03:28:32;10.90;;;9.43;;
13651;SDS011;6899;51.546;6.912;2022-08-19T03:31:00;11.52;;;9.77;;
13651;SDS011;6899;51.546;6.912;2022-08-19T03:33:29;11.15;;;9.80;;
13651;SDS011;6899;51.546;6.912;2022-08-19T03:36:01;9.88;;;8.80;;
13651;SDS011;6899;51.546;6.912;2022-08-19T03:38:30;11.50;;;10.25;;
13651;SDS011;6899;51.546;6.912;2022-08-19T03:40:57;12.55;;;9.93;;
13651;SDS011;6899;51.546;6.912;2022-08-19T03:43:33;10.68;;;9.77;;
13651;SDS011;6899;51.546;6.912;2022-08-19T03:46:02;10.27;;;9.38;;
13651;SDS011;6899;51.546;6.912;2022-08-19T03:48:30;10.50;;;9.27;;
13651;SDS011;6899;51.546;6.912;2022-08-19T03:50:58;10.75;;;9.65;;
13651;SDS011;6899;51.546;6.912;2022-08-19T03:53:26;11.30;;;10.18;;
13651;SDS011;6899;51.546;6.912;2022-08-19T03:55:56;12.40;;;9.35;;
13651;SDS011;6899;51.546;6.912;2022-08-19T03:58:25;10.35;;;9.35;;
13651;SDS011;6899;51.546;6.912;2022-08-19T04:00:55;9.82;;;8.93;;
13651;SDS011;6899;51.546;6.912;2022-08-19T04:03:22;10.30;;;9.32;;
13651;SDS011;6899;51.546;6.912;2022-08-19T04:05:51;10.90;;;9.88;;
13651;SDS011;6899;51.546;6.912;2022-08-19T04:08:19;9.77;;;8.77;;
13651;SDS011;6899;51.546;6.912;2022-08-19T04:10:47;10.85;;;9.55;;
13651;SDS011;6899;51.546;6.912;2022-08-19T04:13:17;10.45;;;9.45;;
13651;SDS011;6899;51.546;6.912;2022-08-19T04:15:45;10.75;;;9.63;;
13651;SDS011;6899;51.546;6.912;2022-08-19T04:18:14;11.13;;;9.25;;
13651;SDS011;6899;51.546;6.912;2022-08-19T04:20:42;10.02;;;9.02;;
13651;SDS011;6899;51.546;6.912;2022-08-19T04:23:10;9.57;;;8.57;;
13651;SDS011;6899;51.546;6.912;2022-08-19T04:25:41;9.90;;;8.90;;
13651;SDS011;6899;51.546;6.912;2022-08-19T04:28:10;10.38;;;8.90;;
13651;SDS011;6899;51.546;6.912;2022-08-19T04:30:39;11.32;;;9.88;;
13651;SDS011;6899;51.546;6.912;2022-08-19T04:33:07;10.57;;;9.45;;
13651;SDS011;6899;51.546;6.912;2022-08-19T04:35:38;10.60;;;9.50;;
13651;SDS011;6899;51.546;6.912;2022-08-19T04:38:16;10.32;;;9.18;;
13651;SDS011;6899;51.546;6.912;2022-08-19T04:40:48;11.52;;;9.95;;
13651;SDS011;6899;51.546;6.912;2022-08-19T04:43:37;9.32;;;8.43;;
13651;SDS011;6899;51.546;6.912;2022-08-19T04:46:05;10.15;;;9.10;;
13651;SDS011;6899;51.546;6.912;2022-08-19T04:48:33;9.95;;;9.02;;
13651;SDS011;6899;51.546;6.912;2022-08-19T04:51:01;9.85;;;8.75;;
13651;SDS011;6899;51.546;6.912;2022-08-19T04:53:34;10.80;;;9.07;;
13651;SDS011;6899;51.546;6.912;2022-08-19T04:56:03;9.35;;;8.40;;
13651;SDS011;6899;51.546;6.912;2022-08-19T04:58:33;10.02;;;8.85;;
13651;SDS011;6899;51.546;6.912;2022-08-19T05:01:03;9.55;;;8.65;;
13651;SDS011;6899;51.546;6.912;2022-08-19T05:03:30;9.90;;;8.90;;
13651;SDS011;6899;51.546;6.912;2022-08-19T05:05:59;8.48;;;7.68;;
13651;SDS011;6899;51.546;6.912;2022-08-19T05:08:33;9.38;;;8.48;;
13651;SDS011;6899;51.546;6.912;2022-08-19T05:11:01;9.40;;;8.30;;
13651;SDS011;6899;51.546;6.912;2022-08-19T05:13:36;9.32;;;8.38;;
13651;SDS011;6899;51.546;6.912;2022-08-19T05:16:04;8.10;;;7.30;;
13651;SDS011;6899;51.546;6.912;2022-08-19T05:18:31;9.15;;;8.18;;
13651;SDS011;6899;51.546;6.912;2022-08-19T05:21:18;9.40;;;8.18;;
13651;SDS011;6899;51.546;6.912;2022-08-19T05:24:04;11.27;;;10.18;;
13651;SDS011;6899;51.546;6.912;2022-08-19T05:26:34;9.10;;;8.23;;
13651;SDS011;6899;51.546;6.912;2022-08-19T05:29:01;12.00;;;10.88;;
13651;SDS011;6899;51.546;6.912;2022-08-19T05:31:29;8.65;;;7.82;;
13651;SDS011;6899;51.546;6.912;2022-08-19T05:33:56;9.95;;;8.50;;
13651;SDS011;6899;51.546;6.912;2022-08-19T05:36:26;10.85;;;9.82;;
13651;SDS011;6899;51.546;6.912;2022-08-19T05:38:54;9.18;;;8.27;;
13651;SDS011;6899;51.546;6.912;2022-08-19T05:41:25;8.07;;;7.22;;
13651;SDS011;6899;51.546;6.912;2022-08-19T05:43:54;9.43;;;8.48;;
13651;SDS011;6899;51.546;6.912;2022-08-19T05:46:21;8.35;;;7.55;;
13651;SDS011;6899;51.546;6.912;2022-08-19T05:48:48;10.35;;;9.40;;
13651;SDS011;6899;51.546;6.912;2022-08-19T05:51:15;12.25;;;10.13;;
13651;SDS011;6899;51.546;6.912;2022-08-19T05:53:44;13.48;;;11.48;;
13651;SDS011;6899;51.546;6.912;2022-08-19T05:56:12;11.00;;;9.90;;
13651;SDS011;6899;51.546;6.912;2022-08-19T05:58:41;11.95;;;10.75;;
13651;SDS011;6899;51.546;6.912;2022-08-19T06:01:10;13.20;;;11.82;;
13651;SDS011;6899;51.546;6.912;2022-08-19T06:03:39;10.52;;;9.55;;
13651;SDS011;6899;51.546;6.912;2022-08-19T06:06:09;14.30;;;12.77;;
13651;SDS011;6899;51.546;6.912;2022-08-19T06:08:38;12.43;;;11.20;;
13651;SDS011;6899;51.546;6.912;2022-08-19T06:11:16;15.70;;;13.23;;
13651;SDS011;6899;51.546;6.912;2022-08-19T06:13:46;17.15;;;14.55;;
13651;SDS011;6899;51.546;6.912;2022-08-19T06:16:16;17.65;;;13.85;;
13651;SDS011;6899;51.546;6.912;2022-08-19T06:18:45;14.85;;;13.35;;
13651;SDS011;6899;51.546;6.912;2022-08-19T06:21:13;14.75;;;13.00;;
13651;SDS011;6899;51.546;6.912;2022-08-19T06:23:40;18.83;;;13.48;;
13651;SDS011;6899;51.546;6.912;2022-08-19T06:26:10;16.15;;;13.13;;
13651;SDS011;6899;51.546;6.912;2022-08-19T06:28:43;14.80;;;11.77;;
13651;SDS011;6899;51.546;6.912;2022-08-19T06:31:11;18.63;;;13.07;;
13651;SDS011;6899;51.546;6.912;2022-08-19T06:33:39;18.75;;;13.60;;
13651;SDS011;6899;51.546;6.912;2022-08-19T06:36:07;12.20;;;10.90;;
13651;SDS011;6899;51.546;6.912;2022-08-19T06:38:41;18.33;;;13.82;;
13651;SDS011;6899;51.546;6.912;2022-08-19T06:41:08;15.20;;;13.55;;
13651;SDS011;6899;51.546;6.912;2022-08-19T06:43:37;16.88;;;13.18;;
13651;SDS011;6899;51.546;6.912;2022-08-19T06:46:09;18.23;;;12.90;;
13651;SDS011;6899;51.546;6.912;2022-08-19T06:48:37;17.67;;;12.48;;
13651;SDS011;6899;51.546;6.912;2022-08-19T06:51:04;19.77;;;14.32;;
13651;SDS011;6899;51.546;6.912;2022-08-19T06:53:31;14.40;;;12.90;;
13651;SDS011;6899;51.546;6.912;2022-08-19T06:56:00;18.58;;;14.40;;
13651;SDS011;6899;51.546;6.912;2022-08-19T06:58:27;18.63;;;13.32;;
13651;SDS011;6899;51.546;6.912;2022-08-19T07:00:58;12.20;;;10.77;;
13651;SDS011;6899;51.546;6.912;2022-08-19T07:03:28;16.70;;;13.85;;
13651;SDS011;6899;51.546;6.912;2022-08-19T07:05:57;14.82;;;13.32;;
13651;SDS011;6899;51.546;6.912;2022-08-19T07:08:24;15.82;;;13.25;;
13651;SDS011;6899;51.546;6.912;2022-08-19T07:10:52;14.68;;;11.77;;
13651;SDS011;6899;51.546;6.912;2022-08-19T07:13:19;13.45;;;12.07;;
13651;SDS011;6899;51.546;6.912;2022-08-19T07:15:48;16.00;;;14.40;;
13651;SDS011;6899;51.546;6.912;2022-08-19T07:18:19;15.20;;;13.70;;
13651;SDS011;6899;51.546;6.912;2022-08-19T07:20:47;18.88;;;14.57;;
13651;SDS011;6899;51.546;6.912;2022-08-19T07:23:14;16.23;;;14.52;;
13651;SDS011;6899;51.546;6.912;2022-08-19T07:25:41;13.07;;;11.77;;
13651;SDS011;6899;51.546;6.912;2022-08-19T07:28:09;17.15;;;15.40;;
13651;SDS011;6899;51.546;6.912;2022-08-19T07:30:36;17.02;;;15.20;;
13651;SDS011;6899;51.546;6.912;2022-08-19T07:33:05;15.25;;;13.63;;
13651;SDS011;6899;51.546;6.912;2022-08-19T07:35:39;18.83;;;16.88;;
13651;SDS011;6899;51.546;6.912;2022-08-19T07:38:07;18.38;;;16.42;;
13651;SDS011;6899;51.546;6.912;2022-08-19T07:40:33;19.45;;;17.05;;
13651;SDS011;6899;51.546;6.912;2022-08-19T07:43:00;21.52;;;19.35;;
13651;SDS011;6899;51.546;6.912;2022-08-19T07:45:27;20.95;;;18.58;;
13651;SDS011;6899;51.546;6.912;2022-08-19T07:47:55;24.88;;;22.17;;
13651;SDS011;6899;51.546;6.912;2022-08-19T07:50:22;18.98;;;17.02;;
13651;SDS011;6899;51.546;6.912;2022-08-19T07:52:50;26.17;;;23.42;;
13651;SDS011;6899;51.546;6.912;2022-08-19T07:55:21;25.83;;;23.02;;
13651;SDS011;6899;51.546;6.912;2022-08-19T07:57:52;25.38;;;22.90;;
13651;SDS011;6899;51.546;6.912;2022-08-19T08:00:22;22.38;;;20.13;;
13651;SDS011;6899;51.546;6.912;2022-08-19T08:02:49;21.63;;;19.45;;
13651;SDS011;6899;51.546;6.912;2022-08-19T08:05:15;24.25;;;21.65;;
13651;SDS011;6899;51.546;6.912;2022-08-19T08:08:02;22.00;;;20.00;;
13651;SDS011;6899;51.546;6.912;2022-08-19T08:10:46;21.25;;;19.23;;
13651;SDS011;6899;51.546;6.912;2022-08-19T08:13:13;24.38;;;21.92;;
13651;SDS011;6899;51.546;6.912;2022-08-19T08:15:41;19.58;;;15.48;;
13651;SDS011;6899;51.546;6.912;2022-08-19T08:18:09;18.27;;;16.38;;
13651;SDS011;6899;51.546;6.912;2022-08-19T08:20:37;21.85;;;19.48;;
13651;SDS011;6899;51.546;6.912;2022-08-19T08:23:05;21.40;;;19.20;;
13651;SDS011;6899;51.546;6.912;2022-08-19T08:25:51;20.10;;;18.05;;
13651;SDS011;6899;51.546;6.912;2022-08-19T08:28:19;24.45;;;20.13;;
13651;SDS011;6899;51.546;6.912;2022-08-19T08:30:47;19.63;;;17.42;;
13651;SDS011;6899;51.546;6.912;2022-08-19T08:33:17;16.05;;;14.35;;
13651;SDS011;6899;51.546;6.912;2022-08-19T08:35:45;21.27;;;19.08;;
13651;SDS011;6899;51.546;6.912;2022-08-19T08:38:19;21.52;;;19.25;;
13651;SDS011;6899;51.546;6.912;2022-08-19T08:40:47;23.30;;;20.85;;
13651;SDS011;6899;51.546;6.912;2022-08-19T08:43:21;23.17;;;20.67;;
13651;SDS011;6899;51.546;6.912;2022-08-19T08:45:52;24.05;;;20.70;;
13651;SDS011;6899;51.546;6.912;2022-08-19T08:48:27;20.05;;;18.15;;
13651;SDS011;6899;51.546;6.912;2022-08-19T08:51:02;23.23;;;19.63;;
13651;SDS011;6899;51.546;6.912;2022-08-19T08:53:32;24.90;;;21.50;;
13651;SDS011;6899;51.546;6.912;2022-08-19T08:56:00;25.05;;;20.77;;
13651;SDS011;6899;51.546;6.912;2022-08-19T08:58:32;17.02;;;15.32;;
13651;SDS011;6899;51.546;6.912;2022-08-19T09:01:09;18.38;;;16.35;;
13651;SDS011;6899;51.546;6.912;2022-08-19T09:03:37;18.83;;;16.88;;
13651;SDS011;6899;51.546;6.912;2022-08-19T09:06:07;17.83;;;16.02;;
13651;SDS011;6899;51.546;6.912;2022-08-19T09:08:42;17.25;;;15.57;;
13651;SDS011;6899;51.546;6.912;2022-08-19T09:11:15;15.25;;;13.82;;
13651;SDS011;6899;51.546;6.912;2022-08-19T09:13:52;18.25;;;16.45;;
13651;SDS011;6899;51.546;6.912;2022-08-19T09:16:33;18.27;;;16.58;;
13651;SDS011;6899;51.546;6.912;2022-08-19T09:19:06;16.98;;;15.20;;
13651;SDS011;6899;51.546;6.912;2022-08-19T09:21:33;19.13;;;17.23;;
13651;SDS011;6899;51.546;6.912;2022-08-19T09:24:03;16.17;;;14.60;;
13651;SDS011;6899;51.546;6.912;2022-08-19T09:26:30;12.93;;;11.60;;
13651;SDS011;6899;51.546;6.912;2022-08-19T09:28:59;12.15;;;9.18;;
13651;SDS011;6899;51.546;6.912;2022-08-19T09:31:27;10.85;;;9.75;;
13651;SDS011;6899;51.546;6.912;2022-08-19T09:33:55;13.93;;;11.68;;
13651;SDS011;6899;51.546;6.912;2022-08-19T09:36:23;10.00;;;9.10;;
13651;SDS011;6899;51.546;6.912;2022-08-19T09:38:51;13.45;;;12.07;;
13651;SDS011;6899;51.546;6.912;2022-08-19T09:41:20;12.88;;;11.65;;
13651;SDS011;6899;51.546;6.912;2022-08-19T09:43:51;11.50;;;10.23;;
13651;SDS011;6899;51.546;6.912;2022-08-19T09:46:21;15.02;;;13.63;;
13651;SDS011;6899;51.546;6.912;2022-08-19T09:48:49;14.18;;;12.73;;
13651;SDS011;6899;51.546;6.912;2022-08-19T09:51:18;14.57;;;13.07;;
13651;SDS011;6899;51.546;6.912;2022-08-19T09:53:46;17.55;;;15.02;;
13651;SDS011;6899;51.546;6.912;2022-08-19T09:56:20;20.13;;;17.00;;
13651;SDS011;6899;51.546;6.912;2022-08-19T09:58:48;18.98;;;16.30;;
13651;SDS011;6899;51.546;6.912;2022-08-19T10:01:15;15.90;;;14.13;;
13651;SDS011;6899;51.546;6.912;2022-08-19T10:03:46;20.20;;;17.52;;
13651;SDS011;6899;51.546;6.912;2022-08-19T10:06:15;18.58;;;15.40;;
13651;SDS011;6899;51.546;6.912;2022-08-19T10:08:42;16.67;;;14.93;;
13651;SDS011;6899;51.546;6.912;2022-08-19T10:11:09;17.05;;;15.32;;
13651;SDS011;6899;51.546;6.912;2022-08-19T10:13:40;14.93;;;13.27;;
13651;SDS011;6899;51.546;6.912;2022-08-19T10:16:09;20.40;;;17.65;;
13651;SDS011;6899;51.546;6.912;2022-08-19T10:18:38;17.17;;;15.38;;
13651;SDS011;6899;51.546;6.912;2022-08-19T10:21:08;18.08;;;16.27;;
13651;SDS011;6899;51.546;6.912;2022-08-19T10:23:37;19.05;;;16.95;;
13651;SDS011;6899;51.546;6.912;2022-08-19T10:26:05;18.35;;;15.93;;
13651;SDS011;6899;51.546;6.912;2022-08-19T10:28:36;17.45;;;15.48;;
13651;SDS011;6899;51.546;6.912;2022-08-19T10:31:05;18.27;;;16.40;;
13651;SDS011;6899;51.546;6.912;2022-08-19T10:33:33;19.25;;;17.25;;
13651;SDS011;6899;51.546;6.912;2022-08-19T10:36:01;20.85;;;17.48;;
13651;SDS011;6899;51.546;6.912;2022-08-19T10:38:29;17.60;;;15.75;;
13651;SDS011;6899;51.546;6.912;2022-08-19T10:41:05;19.88;;;17.10;;
13651;SDS011;6899;51.546;6.912;2022-08-19T10:43:33;21.45;;;18.92;;
13651;SDS011;6899;51.546;6.912;2022-08-19T10:46:04;17.17;;;15.35;;
13651;SDS011;6899;51.546;6.912;2022-08-19T10:48:32;20.25;;;18.08;;
13651;SDS011;6899;51.546;6.912;2022-08-19T10:50:59;17.23;;;15.52;;
13651;SDS011;6899;51.546;6.912;2022-08-19T10:53:47;16.20;;;14.65;;
13651;SDS011;6899;51.546;6.912;2022-08-19T10:56:14;19.75;;;16.52;;
13651;SDS011;6899;51.546;6.912;2022-08-19T10:58:59;18.42;;;16.50;;
13651;SDS011;6899;51.546;6.912;2022-08-19T11:01:30;18.45;;;16.55;;
13651;SDS011;6899;51.546;6.912;2022-08-19T11:03:59;14.05;;;12.73;;
13651;SDS011;6899;51.546;6.912;2022-08-19T11:06:26;15.48;;;13.95;;
13651;SDS011;6899;51.546;6.912;2022-08-19T11:08:53;19.65;;;17.67;;
13651;SDS011;6899;51.546;6.912;2022-08-19T11:11:21;20.23;;;16.38;;
13651;SDS011;6899;51.546;6.912;2022-08-19T11:13:51;16.73;;;15.13;;
13651;SDS011;6899;51.546;6.912;2022-08-19T11:16:19;16.20;;;14.50;;
13651;SDS011;6899;51.546;6.912;2022-08-19T11:18:53;14.23;;;12.75;;
13651;SDS011;6899;51.546;6.912;2022-08-19T11:21:24;14.52;;;13.00;;
13651;SDS011;6899;51.546;6.912;2022-08-19T11:23:53;13.55;;;12.25;;
13651;SDS011;6899;51.546;6.912;2022-08-19T11:26:21;15.85;;;14.13;;
13651;SDS011;6899;51.546;6.912;2022-08-19T11:28:52;16.17;;;14.55;;
13651;SDS011;6899;51.546;6.912;2022-08-19T11:31:21;20.05;;;15.98;;
13651;SDS011;6899;51.546;6.912;2022-08-19T11:33:55;13.68;;;12.32;;
13651;SDS011;6899;51.546;6.912;2022-08-19T11:36:22;13.80;;;12.50;;
13651;SDS011;6899;51.546;6.912;2022-08-19T11:38:49;11.90;;;10.68;;
13651;SDS011;6899;51.546;6.912;2022-08-19T11:41:17;17.10;;;14.82;;
13651;SDS011;6899;51.546;6.912;2022-08-19T11:43:45;13.70;;;12.35;;
13651;SDS011;6899;51.546;6.912;2022-08-19T11:46:13;13.57;;;12.25;;
13651;SDS011;6899;51.546;6.912;2022-08-19T11:48:41;12.85;;;11.55;;
13651;SDS011;6899;51.546;6.912;2022-08-19T11:51:11;11.93;;;10.63;;
13651;SDS011;6899;51.546;6.912;2022-08-19T11:53:40;12.45;;;10.75;;
13651;SDS011;6899;51.546;6.912;2022-08-19T11:56:07;12.75;;;11.45;;
13651;SDS011;6899;51.546;6.912;2022-08-19T11:58:35;12.18;;;10.88;;
13651;SDS011;6899;51.546;6.912;2022-08-19T12:01:04;14.13;;;12.75;;
13651;SDS011;6899;51.546;6.912;2022-08-19T12:03:31;12.07;;;10.88;;
13651;SDS011;6899;51.546;6.912;2022-08-19T12:05:58;11.43;;;10.43;;
13651;SDS011;6899;51.546;6.912;2022-08-19T12:08:31;9.75;;;8.75;;
13651;SDS011;6899;51.546;6.912;2022-08-19T12:10:58;11.05;;;9.48;;
13651;SDS011;6899;51.546;6.912;2022-08-19T12:13:26;11.70;;;9.38;;
13651;SDS011;6899;51.546;6.912;2022-08-19T12:15:53;10.63;;;9.65;;
13651;SDS011;6899;51.546;6.912;2022-08-19T12:18:22;10.55;;;9.38;;
13651;SDS011;6899;51.546;6.912;2022-08-19T12:20:49;9.65;;;8.07;;
13651;SDS011;6899;51.546;6.912;2022-08-19T12:23:17;8.05;;;7.25;;
13651;SDS011;6899;51.546;6.912;2022-08-19T12:25:46;8.60;;;6.90;;
13651;SDS011;6899;51.546;6.912;2022-08-19T12:28:17;10.40;;;7.90;;
13651;SDS011;6899;51.546;6.912;2022-08-19T12:30:45;8.85;;;7.35;;
13651;SDS011;6899;51.546;6.912;2022-08-19T12:33:12;7.38;;;6.72;;
13651;SDS011;6899;51.546;6.912;2022-08-19T12:35:40;7.38;;;6.68;;
13651;SDS011;6899;51.546;6.912;2022-08-19T12:38:07;8.57;;;6.88;;
13651;SDS011;6899;51.546;6.912;2022-08-19T12:40:34;7.82;;;7.03;;
13651;SDS011;6899;51.546;6.912;2022-08-19T12:43:02;7.60;;;6.22;;
13651;SDS011;6899;51.546;6.912;2022-08-19T12:45:29;8.57;;;7.63;;
13651;SDS011;6899;51.546;6.912;2022-08-19T12:47:59;7.82;;;7.07;;
13651;SDS011;6899;51.546;6.912;2022-08-19T12:50:26;6.95;;;6.35;;
13651;SDS011;6899;51.546;6.912;2022-08-19T12:52:53;6.28;;;5.07;;
13651;SDS011;6899;51.546;6.912;2022-08-19T12:55:20;8.00;;;7.15;;
13651;SDS011;6899;51.546;6.912;2022-08-19T12:57:47;7.50;;;5.95;;
13651;SDS011;6899;51.546;6.912;2022-08-19T13:00:16;6.22;;;5.63;;
13651;SDS011;6899;51.546;6.912;2022-08-19T13:02:46;6.00;;;5.40;;
13651;SDS011;6899;51.546;6.912;2022-08-19T13:05:19;5.97;;;4.78;;
13651;SDS011;6899;51.546;6.912;2022-08-19T13:07:48;5.88;;;4.95;;
13651;SDS011;6899;51.546;6.912;2022-08-19T13:10:17;6.20;;;4.78;;
13651;SDS011;6899;51.546;6.912;2022-08-19T13:12:47;7.47;;;5.38;;
13651;SDS011;6899;51.546;6.912;2022-08-19T13:15:16;6.30;;;5.80;;
13651;SDS011;6899;51.546;6.912;2022-08-19T13:17:45;5.72;;;5.15;;
13651;SDS011;6899;51.546;6.912;2022-08-19T13:20:13;6.47;;;5.30;;
13651;SDS011;6899;51.546;6.912;2022-08-19T13:22:45;8.07;;;5.40;;
13651;SDS011;6899;51.546;6.912;2022-08-19T13:25:18;5.95;;;5.22;;
13651;SDS011;6899;51.546;6.912;2022-08-19T13:27:46;7.03;;;5.60;;
13651;SDS011;6899;51.546;6.912;2022-08-19T13:30:15;5.43;;;4.80;;
13651;SDS011;6899;51.546;6.912;2022-08-19T13:33:01;5.72;;;5.20;;
13651;SDS011;6899;51.546;6.912;2022-08-19T13:35:40;6.20;;;4.70;;
13651;SDS011;6899;51.546;6.912;2022-08-19T13:38:08;7.53;;;5.50;;
13651;SDS011;6899;51.546;6.912;2022-08-19T13:40:38;6.13;;;5.00;;
13651;SDS011;6899;51.546;6.912;2022-08-19T13:43:09;6.43;;;5.00;;
13651;SDS011;6899;51.546;6.912;2022-08-19T13:45:37;5.45;;;4.93;;
13651;SDS011;6899;51.546;6.912;2022-08-19T13:48:05;6.00;;;4.82;;
13651;SDS011;6899;51.546;6.912;2022-08-19T13:50:35;7.38;;;5.10;;
13651;SDS011;6899;51.546;6.912;2022-08-19T13:53:05;5.65;;;5.15;;
13651;SDS011;6899;51.546;6.912;2022-08-19T13:55:32;5.05;;;4.55;;
13651;SDS011;6899;51.546;6.912;2022-08-19T13:57:59;5.55;;;4.70;;
13651;SDS011;6899;51.546;6.912;2022-08-19T14:00:28;6.22;;;5.63;;
13651;SDS011;6899;51.546;6.912;2022-08-19T14:02:58;6.85;;;5.85;;
13651;SDS011;6899;51.546;6.912;2022-08-19T14:05:25;7.90;;;5.97;;
13651;SDS011;6899;51.546;6.912;2022-08-19T14:07:53;6.63;;;5.72;;
13651;SDS011;6899;51.546;6.912;2022-08-19T14:10:21;6.22;;;5.70;;
13651;SDS011;6899;51.546;6.912;2022-08-19T14:12:49;7.57;;;6.30;;
13651;SDS011;6899;51.546;6.912;2022-08-19T14:15:18;8.35;;;7.45;;
13651;SDS011;6899;51.546;6.912;2022-08-19T14:17:45;8.52;;;7.45;;
13651;SDS011;6899;51.546;6.912;2022-08-19T14:20:15;9.40;;;7.90;;
13651;SDS011;6899;51.546;6.912;2022-08-19T14:22:42;8.30;;;6.95;;
13651;SDS011;6899;51.546;6.912;2022-08-19T14:25:11;8.73;;;7.93;;
13651;SDS011;6899;51.546;6.912;2022-08-19T14:27:40;9.45;;;8.55;;
13651;SDS011;6899;51.546;6.912;2022-08-19T14:30:10;9.88;;;8.70;;
13651;SDS011;6899;51.546;6.912;2022-08-19T14:32:39;10.82;;;9.68;;
13651;SDS011;6899;51.546;6.912;2022-08-19T14:35:08;9.98;;;8.95;;
13651;SDS011;6899;51.546;6.912;2022-08-19T14:37:38;9.48;;;8.50;;
13651;SDS011;6899;51.546;6.912;2022-08-19T14:40:07;11.63;;;9.77;;
13651;SDS011;6899;51.546;6.912;2022-08-19T14:42:34;13.80;;;9.27;;
13651;SDS011;6899;51.546;6.912;2022-08-19T14:45:01;9.45;;;8.45;;
13651;SDS011;6899;51.546;6.912;2022-08-19T14:47:30;9.38;;;8.57;;
13651;SDS011;6899;51.546;6.912;2022-08-19T14:49:57;11.20;;;10.18;;
13651;SDS011;6899;51.546;6.912;2022-08-19T14:52:24;8.50;;;7.70;;
13651;SDS011;6899;51.546;6.912;2022-08-19T14:54:52;8.93;;;7.15;;
13651;SDS011;6899;51.546;6.912;2022-08-19T14:57:19;10.70;;;7.13;;
13651;SDS011;6899;51.546;6.912;2022-08-19T14:59:46;9.20;;;7.43;;